Česky Dansk Deutsch English Español Suomi Français Magyar Italiano Nederlands norsk Polski Português svenska Türkçe

 

Het Weer

Changsha (China)

22:00, 9 augustus 2016 (GMT)

 
WE
 
Home            
Changsha Changsha Wuhan Nanchang Ganzhou Guilin Guangzhou Hefei Guiyang Chongqing Shenzhen Shantou Xiamen Hong Kong Inter-National Airport Fuzhou Taipa Cheung Chau Chinmem / Shatou Air Force Base Nanjing Zhengzhou Mazu Hangzhou Nanning

Om een weerknop op uw website of weblog te plaatsen, copieer onderstaande code en plak die in uw pagina. In het eerste vakje staat HTML-code, in het tweede vakje UBB-code.


Add to Google

Details

Wind speed:1 bf, 1.9 kn, 1 m/s, 2.2 miles/h, 3.6 km/h
Wind direction:NNE, 020°
Visibility: 4000 m, 4.0 km, 13123 ft, 2.5 miles
Het Weer:moderate mist
Temperature:26°C, 79°F
Gefühlte Temperatur:28°C, 83°F
Dew-point:25°C, 77°F
Atmospheric pressure:1003 hPa, 752.3 mmHg, 29.62 inHg, 0.990 atm
Relative humidity:94.2 %
METAR:ZGHA 092200Z 02001MPS 4000 BR NSC 26/25 Q1003 NOSIG

Snelkoppelingen

Actuele weersinformatie van de hele wereld. Voeg locaties toe met het plus (+) symbool. Deze snelkoppelingen kunnen worden toegevoegd aan Google.

Lid van de Technetium groep

website free tracking
StatCounter NetStat W3C Validator

22-05-2022 12:41:52
astro.technetium.be money.technetium.be phote.technetium.be tafeltennistafel.technetium.be www.ligfiets.net